createdAt,value
2022-10-08T00:00:26.331Z,2.53
2022-10-08T00:02:57.031Z,3.00
2022-10-08T00:05:24.568Z,3.00
2022-10-08T00:07:52.234Z,2.70
2022-10-08T00:10:19.668Z,2.70
2022-10-08T00:12:47.817Z,2.70
2022-10-08T00:15:15.664Z,2.63
2022-10-08T00:17:44.405Z,2.53
2022-10-08T00:20:11.735Z,2.63
2022-10-08T00:22:39.939Z,2.53
2022-10-08T00:25:08.457Z,2.47
2022-10-08T00:27:35.766Z,2.58
2022-10-08T00:30:04.887Z,2.40
2022-10-08T00:32:32.300Z,3.00
2022-10-08T00:35:00.437Z,2.80
2022-10-08T00:37:27.757Z,3.30
2022-10-08T00:39:55.357Z,2.95
2022-10-08T00:42:22.683Z,2.90
2022-10-08T00:44:55.512Z,2.47
2022-10-08T00:47:25.900Z,3.22
2022-10-08T00:49:55.573Z,2.28
2022-10-08T00:52:24.782Z,2.60
2022-10-08T00:54:52.321Z,2.70
2022-10-08T00:57:21.393Z,3.13
2022-10-08T00:59:49.995Z,2.80
2022-10-08T01:02:18.297Z,2.75
2022-10-08T01:04:46.302Z,2.40
2022-10-08T01:07:23.927Z,2.72
2022-10-08T01:09:54.516Z,2.78
2022-10-08T01:12:33.453Z,2.97
2022-10-08T01:15:06.982Z,2.40
2022-10-08T01:17:50.273Z,2.90
2022-10-08T01:20:27.535Z,2.80
2022-10-08T01:23:01.853Z,2.97
2022-10-08T01:25:35.822Z,2.67
2022-10-08T01:28:14.109Z,2.88
2022-10-08T01:30:45.422Z,2.85
2022-10-08T01:33:16.874Z,2.78
2022-10-08T01:35:47.318Z,2.33
2022-10-08T01:38:17.798Z,3.05
2022-10-08T01:40:46.235Z,2.28
2022-10-08T01:43:16.701Z,2.90
2022-10-08T01:45:51.080Z,3.08
2022-10-08T01:48:23.070Z,2.83
2022-10-08T01:50:50.532Z,2.25
2022-10-08T01:53:18.853Z,2.60
2022-10-08T01:55:51.529Z,2.50
2022-10-08T01:58:21.828Z,3.80
2022-10-08T02:00:50.846Z,2.53
2022-10-08T02:03:19.021Z,2.40
2022-10-08T02:05:50.572Z,2.50
2022-10-08T02:08:18.793Z,2.58
2022-10-08T02:10:46.153Z,2.38
2022-10-08T02:13:14.595Z,2.70
2022-10-08T02:15:54.394Z,2.90
2022-10-08T02:18:29.101Z,2.58
2022-10-08T02:20:56.660Z,2.15
2022-10-08T02:23:30.820Z,2.33
2022-10-08T02:26:02.384Z,2.65
2022-10-08T02:28:33.257Z,2.70
2022-10-08T02:31:09.566Z,2.38
2022-10-08T02:34:03.849Z,2.42
2022-10-08T02:36:35.315Z,1.75
2022-10-08T02:39:08.758Z,2.40
2022-10-08T02:41:41.870Z,2.08
2022-10-08T02:44:11.137Z,2.38
2022-10-08T02:46:42.783Z,1.90
2022-10-08T02:49:15.553Z,1.98
2022-10-08T02:51:45.897Z,1.90
2022-10-08T02:54:13.646Z,1.80
2022-10-08T02:56:51.983Z,1.85
2022-10-08T02:59:21.179Z,2.03
2022-10-08T03:01:48.527Z,2.00
2022-10-08T03:04:33.620Z,2.20
2022-10-08T03:07:01.379Z,1.95
2022-10-08T03:09:40.133Z,2.65
2022-10-08T03:12:07.719Z,2.25
2022-10-08T03:14:46.681Z,1.50
2022-10-08T03:17:15.131Z,2.10
2022-10-08T03:19:42.670Z,2.08
2022-10-08T03:22:10.177Z,2.05
2022-10-08T03:24:38.407Z,1.98
2022-10-08T03:27:05.802Z,2.10
2022-10-08T03:29:33.985Z,1.85
2022-10-08T03:32:01.313Z,2.00
2022-10-08T03:34:28.855Z,2.03
2022-10-08T03:36:56.384Z,2.40
2022-10-08T03:39:23.799Z,2.20
2022-10-08T03:41:51.583Z,2.60
2022-10-08T03:44:18.953Z,2.30
2022-10-08T03:46:46.495Z,2.80
2022-10-08T03:49:16.955Z,3.00
2022-10-08T03:51:44.263Z,2.85
2022-10-08T03:54:11.844Z,3.67
2022-10-08T03:56:39.362Z,2.92
2022-10-08T03:59:07.660Z,3.25
2022-10-08T04:01:35.095Z,3.13
2022-10-08T04:04:02.487Z,3.13
2022-10-08T04:06:30.036Z,3.53
2022-10-08T04:09:01.197Z,2.78
2022-10-08T04:11:29.475Z,3.10
2022-10-08T04:13:56.864Z,4.28
2022-10-08T04:16:24.536Z,3.25
2022-10-08T04:18:51.866Z,3.30
2022-10-08T04:21:19.562Z,3.60
2022-10-08T04:23:47.507Z,3.35
2022-10-08T04:26:15.256Z,3.47
2022-10-08T04:28:44.746Z,3.17
2022-10-08T04:31:13.497Z,3.83
2022-10-08T04:33:41.929Z,3.28
2022-10-08T04:36:10.315Z,3.53
2022-10-08T04:38:37.776Z,3.00
2022-10-08T04:41:16.268Z,3.00
2022-10-08T04:43:44.367Z,3.40
2022-10-08T04:46:13.133Z,3.55
2022-10-08T04:48:40.826Z,3.30
2022-10-08T04:51:10.750Z,3.25
2022-10-08T04:53:38.599Z,3.10
2022-10-08T04:56:13.055Z,2.95
2022-10-08T04:58:40.832Z,2.93
2022-10-08T05:01:09.401Z,2.38
2022-10-08T05:03:38.494Z,3.28
2022-10-08T05:06:06.269Z,2.90
2022-10-08T05:08:34.270Z,2.92
2022-10-08T05:11:01.583Z,2.47
2022-10-08T05:13:30.156Z,3.60
2022-10-08T05:15:57.548Z,3.38
2022-10-08T05:18:25.695Z,3.50
2022-10-08T05:20:53.054Z,3.42
2022-10-08T05:23:20.484Z,3.28
2022-10-08T05:25:49.057Z,3.45
2022-10-08T05:28:16.440Z,3.55
2022-10-08T05:30:44.742Z,3.22
2022-10-08T05:33:12.094Z,2.95
2022-10-08T05:35:39.667Z,2.83
2022-10-08T05:38:06.990Z,2.92
2022-10-08T05:40:34.505Z,3.00
2022-10-08T05:43:01.862Z,4.05
2022-10-08T05:45:29.459Z,2.95
2022-10-08T05:47:56.869Z,3.03
2022-10-08T05:50:24.289Z,3.03
2022-10-08T05:52:51.858Z,2.85
2022-10-08T05:55:19.488Z,3.95
2022-10-08T05:57:47.576Z,3.40
2022-10-08T06:00:15.334Z,3.08
2022-10-08T06:02:42.894Z,2.90
2022-10-08T06:05:10.322Z,3.55
2022-10-08T06:07:38.463Z,3.05
2022-10-08T06:10:06.090Z,3.80
2022-10-08T06:12:33.696Z,3.60
2022-10-08T06:15:01.183Z,4.95
2022-10-08T06:17:28.533Z,4.25
2022-10-08T06:19:57.362Z,4.60
2022-10-08T06:22:24.760Z,7.40
2022-10-08T06:25:00.343Z,5.10
2022-10-08T06:27:28.646Z,5.22
2022-10-08T06:29:56.198Z,9.73
2022-10-08T06:32:23.491Z,8.23
2022-10-08T06:34:51.124Z,9.63
2022-10-08T06:37:18.501Z,10.05
2022-10-08T06:39:48.467Z,8.45
2022-10-08T06:42:16.255Z,9.95
2022-10-08T06:44:43.634Z,8.52
2022-10-08T06:47:11.385Z,7.35
2022-10-08T06:49:39.962Z,7.72
2022-10-08T06:52:08.168Z,7.38
2022-10-08T06:54:35.705Z,6.30
2022-10-08T06:57:03.929Z,5.55
2022-10-08T06:59:31.588Z,6.13
2022-10-08T07:01:59.455Z,6.18
2022-10-08T07:04:27.201Z,6.10
2022-10-08T07:06:54.585Z,6.15
2022-10-08T07:09:22.043Z,6.55
2022-10-08T07:11:49.373Z,6.05
2022-10-08T07:14:19.714Z,6.93
2022-10-08T07:16:47.972Z,7.80
2022-10-08T07:19:16.030Z,8.43
2022-10-08T07:21:43.512Z,8.38
2022-10-08T07:24:10.899Z,7.85
2022-10-08T07:26:39.075Z,7.03
2022-10-08T07:29:13.498Z,9.23
2022-10-08T07:31:42.401Z,9.60
2022-10-08T07:34:12.673Z,8.88
2022-10-08T07:36:41.550Z,8.80
2022-10-08T07:39:10.159Z,8.63
2022-10-08T07:41:38.394Z,9.23
2022-10-08T07:44:06.039Z,8.80
2022-10-08T07:46:34.495Z,8.43
2022-10-08T07:49:02.801Z,8.07
2022-10-08T07:51:31.633Z,10.15
2022-10-08T07:54:02.583Z,8.70
2022-10-08T07:56:30.793Z,8.90
2022-10-08T07:58:59.334Z,8.75
2022-10-08T08:01:28.854Z,8.68
2022-10-08T08:03:57.729Z,9.45
2022-10-08T08:06:25.779Z,9.75
2022-10-08T08:08:53.601Z,10.00
2022-10-08T08:11:24.076Z,8.93
2022-10-08T08:13:51.648Z,8.65
2022-10-08T08:16:20.415Z,10.43
2022-10-08T08:18:49.243Z,10.25
2022-10-08T08:21:23.643Z,7.07
2022-10-08T08:23:52.807Z,5.70
2022-10-08T08:26:23.695Z,5.13
2022-10-08T08:28:55.450Z,4.00
2022-10-08T08:31:25.156Z,3.97
2022-10-08T08:33:59.916Z,4.07
2022-10-08T08:36:28.913Z,4.22
2022-10-08T08:38:57.213Z,4.90
2022-10-08T08:41:34.512Z,5.40
2022-10-08T08:44:03.759Z,4.45
2022-10-08T08:46:37.449Z,4.18
2022-10-08T08:49:08.768Z,4.40
2022-10-08T08:51:36.529Z,4.47
2022-10-08T08:54:04.770Z,4.63
2022-10-08T08:56:32.835Z,3.50
2022-10-08T08:59:16.128Z,3.47
2022-10-08T09:01:45.475Z,3.80
2022-10-08T09:04:20.528Z,4.45
2022-10-08T09:06:49.415Z,3.88
2022-10-08T09:09:26.973Z,4.22
2022-10-08T09:11:55.188Z,4.68
2022-10-08T09:14:46.847Z,5.47
2022-10-08T09:17:19.129Z,4.45
2022-10-08T09:19:48.011Z,5.00
2022-10-08T09:22:26.375Z,5.72
2022-10-08T09:25:01.506Z,6.40
2022-10-08T09:27:49.666Z,5.95
2022-10-08T09:30:30.309Z,6.28
2022-10-08T09:32:59.516Z,6.25
2022-10-08T09:35:27.453Z,7.05
2022-10-08T09:37:57.719Z,7.30
2022-10-08T09:40:29.114Z,6.55
2022-10-08T09:43:12.008Z,7.03
2022-10-08T09:45:41.029Z,6.05
2022-10-08T09:48:25.899Z,5.80
2022-10-08T09:50:56.605Z,5.73
2022-10-08T09:53:24.733Z,5.88
2022-10-08T09:56:00.687Z,6.05
2022-10-08T09:58:30.397Z,6.72
2022-10-08T10:01:17.495Z,6.68
2022-10-08T10:03:55.694Z,7.28
2022-10-08T10:06:39.848Z,5.93
2022-10-08T10:09:20.073Z,7.95
2022-10-08T10:11:58.073Z,6.30
2022-10-08T10:14:25.411Z,6.25
2022-10-08T10:16:59.746Z,6.57
2022-10-08T10:19:31.079Z,8.50
2022-10-08T10:22:10.692Z,7.53
2022-10-08T10:24:53.377Z,6.80
2022-10-08T10:27:24.804Z,7.50
2022-10-08T10:30:07.622Z,7.95
2022-10-08T10:32:38.760Z,7.47
2022-10-08T10:35:08.654Z,7.80
2022-10-08T10:37:45.144Z,7.15
2022-10-08T10:40:20.074Z,6.20
2022-10-08T10:43:07.797Z,6.03
2022-10-08T10:45:35.572Z,6.18
2022-10-08T10:48:03.971Z,5.35
2022-10-08T10:50:40.814Z,6.68
2022-10-08T10:53:30.428Z,6.55
2022-10-08T10:56:00.938Z,5.30
2022-10-08T10:58:40.784Z,5.18
2022-10-08T11:01:15.929Z,5.13
2022-10-08T11:06:10.787Z,5.72
2022-10-08T11:08:46.102Z,5.80
2022-10-08T11:13:40.876Z,4.43
2022-10-08T11:16:26.138Z,4.82
2022-10-08T11:18:57.172Z,5.07
2022-10-08T11:21:24.521Z,4.47
2022-10-08T11:24:04.330Z,4.82
2022-10-08T11:26:36.893Z,4.85
2022-10-08T11:29:13.916Z,6.03
2022-10-08T11:31:50.927Z,4.72
2022-10-08T11:34:28.157Z,4.50
2022-10-08T11:36:58.338Z,4.55
2022-10-08T11:39:31.962Z,5.13
2022-10-08T11:42:17.457Z,5.97
2022-10-08T11:44:45.038Z,5.28
2022-10-08T11:47:31.088Z,5.70
2022-10-08T11:49:58.794Z,6.10
2022-10-08T11:52:30.037Z,6.05
2022-10-08T11:54:58.368Z,4.97
2022-10-08T11:58:06.299Z,5.65
2022-10-08T12:00:34.471Z,6.10
2022-10-08T12:03:02.233Z,4.93
2022-10-08T12:05:35.546Z,5.70
2022-10-08T12:08:04.002Z,4.93
2022-10-08T12:10:33.270Z,5.03
2022-10-08T12:13:03.920Z,5.13
2022-10-08T12:15:33.549Z,5.13
2022-10-08T12:18:01.265Z,4.57
2022-10-08T12:20:28.525Z,4.60
2022-10-08T12:23:19.443Z,4.65
2022-10-08T12:26:02.887Z,4.03
2022-10-08T12:28:30.529Z,3.90
2022-10-08T12:31:00.581Z,3.55
2022-10-08T12:33:28.996Z,3.63
2022-10-08T12:36:03.275Z,3.28
2022-10-08T12:38:30.730Z,3.80
2022-10-08T12:41:27.433Z,4.20
2022-10-08T12:43:57.753Z,3.47
2022-10-08T12:46:31.310Z,3.22
2022-10-08T12:49:01.934Z,3.70
2022-10-08T12:51:41.742Z,3.50
2022-10-08T12:54:18.156Z,3.22
2022-10-08T12:56:45.726Z,3.53
2022-10-08T12:59:13.745Z,3.70
2022-10-08T13:01:43.723Z,3.72
2022-10-08T13:04:18.947Z,4.93
2022-10-08T13:06:47.700Z,4.03
2022-10-08T13:09:25.557Z,3.75
2022-10-08T13:11:58.212Z,4.38
2022-10-08T13:14:30.610Z,4.03
2022-10-08T13:16:58.807Z,3.35
2022-10-08T13:19:44.460Z,3.80
2022-10-08T13:22:28.252Z,2.35
2022-10-08T13:24:55.542Z,2.33
2022-10-08T13:27:33.577Z,2.40
2022-10-08T13:30:01.503Z,2.15
2022-10-08T13:32:39.223Z,2.72
2022-10-08T13:35:07.202Z,2.30
2022-10-08T13:37:36.654Z,3.40
2022-10-08T13:40:04.120Z,4.45
2022-10-08T13:42:33.389Z,2.97
2022-10-08T13:45:05.948Z,3.25
2022-10-08T13:47:33.580Z,3.20
2022-10-08T13:50:02.438Z,3.78
2022-10-08T13:52:31.518Z,3.85
2022-10-08T13:55:03.767Z,5.97
2022-10-08T13:57:32.360Z,3.47
2022-10-08T13:59:59.682Z,6.35
2022-10-08T14:02:27.089Z,3.63
2022-10-08T14:04:54.700Z,2.80
2022-10-08T14:07:28.032Z,2.75
2022-10-08T14:09:56.796Z,2.75
2022-10-08T14:12:26.791Z,3.20
2022-10-08T14:14:54.889Z,2.70
2022-10-08T14:17:22.360Z,3.30
2022-10-08T14:19:50.241Z,2.97
2022-10-08T14:22:17.883Z,3.38
2022-10-08T14:24:45.264Z,2.60
2022-10-08T14:27:12.898Z,3.10
2022-10-08T14:29:40.424Z,2.85
2022-10-08T14:32:10.472Z,2.95
2022-10-08T14:34:38.266Z,2.78
2022-10-08T14:37:06.069Z,2.85
2022-10-08T14:39:33.878Z,2.60
2022-10-08T14:42:01.484Z,3.00
2022-10-08T14:44:29.146Z,3.17
2022-10-08T14:46:56.640Z,2.40
2022-10-08T14:49:24.818Z,2.53
2022-10-08T14:51:52.353Z,3.05
2022-10-08T14:54:19.889Z,3.95
2022-10-08T14:56:48.386Z,2.72
2022-10-08T14:59:15.785Z,2.85
2022-10-08T15:01:44.318Z,2.67
2022-10-08T15:04:14.534Z,2.75
2022-10-08T15:06:42.154Z,2.85
2022-10-08T15:09:11.427Z,2.38
2022-10-08T15:11:39.001Z,2.35
2022-10-08T15:14:06.761Z,2.45
2022-10-08T15:16:34.171Z,2.47
2022-10-08T15:19:02.607Z,2.50
2022-10-08T15:21:29.925Z,1.80
2022-10-08T15:23:57.459Z,2.20
2022-10-08T15:26:24.854Z,1.85
2022-10-08T15:28:53.788Z,2.40
2022-10-08T15:31:23.977Z,1.77
2022-10-08T15:33:52.347Z,1.67
2022-10-08T15:36:20.541Z,1.92
2022-10-08T15:38:48.534Z,1.80
2022-10-08T15:41:19.791Z,1.63
2022-10-08T15:43:47.331Z,1.50
2022-10-08T15:46:18.412Z,1.50
2022-10-08T15:48:56.579Z,1.08
2022-10-08T15:51:24.647Z,1.45
2022-10-08T15:53:52.367Z,1.15
2022-10-08T15:56:20.000Z,1.17
2022-10-08T15:58:51.557Z,1.13
2022-10-08T16:01:20.744Z,1.58
2022-10-08T16:03:49.206Z,1.25
2022-10-08T16:06:19.097Z,1.20
2022-10-08T16:08:46.436Z,0.90
2022-10-08T16:11:17.807Z,1.45
2022-10-08T16:13:46.052Z,1.30
2022-10-08T16:16:15.478Z,1.70
2022-10-08T16:18:45.929Z,2.00
2022-10-08T16:21:14.405Z,1.48
2022-10-08T16:23:41.725Z,1.35
2022-10-08T16:26:12.081Z,1.48
2022-10-08T16:28:41.360Z,1.73
2022-10-08T16:31:11.429Z,2.13
2022-10-08T16:33:40.199Z,2.72
2022-10-08T16:36:08.440Z,1.95
2022-10-08T16:38:36.798Z,1.60
2022-10-08T16:41:31.057Z,1.25
2022-10-08T16:43:59.495Z,2.03
2022-10-08T16:46:29.206Z,1.23
2022-10-08T16:48:57.624Z,2.03
2022-10-08T16:51:26.202Z,2.20
2022-10-08T16:53:54.925Z,1.90
2022-10-08T16:56:22.895Z,2.05
2022-10-08T16:58:57.716Z,1.67
2022-10-08T17:01:25.994Z,1.63
2022-10-08T17:03:54.999Z,1.45
2022-10-08T17:06:23.140Z,1.48
2022-10-08T17:08:51.514Z,1.50
2022-10-08T17:11:19.719Z,1.23
2022-10-08T17:13:48.998Z,1.85
2022-10-08T17:16:17.128Z,1.40
2022-10-08T17:18:44.894Z,1.10
2022-10-08T17:21:13.082Z,1.42
2022-10-08T17:23:40.596Z,1.27
2022-10-08T17:26:13.532Z,1.27
2022-10-08T17:28:42.343Z,1.75
2022-10-08T17:31:11.696Z,2.60
2022-10-08T17:33:39.280Z,2.78
2022-10-08T17:36:11.863Z,3.10
2022-10-08T17:38:40.929Z,2.42
2022-10-08T17:41:14.176Z,2.17
2022-10-08T17:43:42.411Z,2.10
2022-10-08T17:46:10.740Z,1.98
2022-10-08T17:48:38.285Z,1.92
2022-10-08T17:51:06.807Z,1.95
2022-10-08T17:53:34.229Z,1.95
2022-10-08T17:56:03.952Z,1.50
2022-10-08T17:58:31.585Z,1.67
2022-10-08T18:01:13.306Z,1.75
2022-10-08T18:03:41.381Z,2.28
2022-10-08T18:06:10.592Z,2.08
2022-10-08T18:08:38.387Z,1.77
2022-10-08T18:11:06.949Z,1.85
2022-10-08T18:13:37.351Z,1.88
2022-10-08T18:16:09.646Z,1.70
2022-10-08T18:18:37.055Z,2.13
2022-10-08T18:21:05.656Z,2.10
2022-10-08T18:23:33.747Z,1.98
2022-10-08T18:26:08.738Z,2.38
2022-10-08T18:28:36.659Z,1.85
2022-10-08T18:31:07.540Z,2.28
2022-10-08T18:33:39.235Z,1.50
2022-10-08T18:36:14.004Z,2.25
2022-10-08T18:38:42.575Z,1.98
2022-10-08T18:41:20.207Z,1.60
2022-10-08T18:43:48.561Z,1.63
2022-10-08T18:46:16.968Z,1.60
2022-10-08T18:48:44.650Z,1.60
2022-10-08T18:51:17.094Z,1.63
2022-10-08T18:53:46.699Z,2.25
2022-10-08T18:56:15.438Z,1.77
2022-10-08T18:58:46.229Z,2.20
2022-10-08T19:01:35.357Z,1.90
2022-10-08T19:04:03.861Z,1.70
2022-10-08T19:06:33.809Z,2.00
2022-10-08T19:09:01.179Z,2.00
2022-10-08T19:11:33.515Z,1.60
2022-10-08T19:14:02.075Z,1.30
2022-10-08T19:16:31.070Z,1.48
2022-10-08T19:19:05.268Z,1.70
2022-10-08T19:21:34.649Z,2.75
2022-10-08T19:24:02.644Z,3.13
2022-10-08T19:26:33.587Z,3.75
2022-10-08T19:29:01.287Z,3.72
2022-10-08T19:31:31.028Z,3.65
2022-10-08T19:34:07.530Z,4.35
2022-10-08T19:36:38.730Z,3.03
2022-10-08T19:39:13.223Z,2.83
2022-10-08T19:41:41.660Z,2.70
2022-10-08T19:44:09.537Z,3.65
2022-10-08T19:46:37.191Z,3.42
2022-10-08T19:49:06.386Z,2.50
2022-10-08T19:51:34.228Z,3.00
2022-10-08T19:54:02.622Z,2.13
2022-10-08T19:56:31.160Z,2.65
2022-10-08T19:58:58.999Z,3.13
2022-10-08T20:01:28.171Z,2.75
2022-10-08T20:03:56.549Z,2.58
2022-10-08T20:06:25.376Z,3.00
2022-10-08T20:08:57.154Z,3.13
2022-10-08T20:11:25.193Z,3.67
2022-10-08T20:13:53.568Z,3.25
2022-10-08T20:16:22.651Z,3.30
2022-10-08T20:18:54.556Z,3.13
2022-10-08T20:21:22.672Z,3.00
2022-10-08T20:23:50.774Z,2.40
2022-10-08T20:26:18.234Z,3.22
2022-10-08T20:28:47.057Z,3.70
2022-10-08T20:31:18.121Z,2.95
2022-10-08T20:33:46.245Z,2.92
2022-10-08T20:36:15.283Z,3.22
2022-10-08T20:38:43.612Z,3.10
2022-10-08T20:41:11.373Z,3.50
2022-10-08T20:43:39.639Z,3.80
2022-10-08T20:46:12.351Z,3.45
2022-10-08T20:48:40.991Z,4.07
2022-10-08T20:51:09.752Z,4.07
2022-10-08T20:53:37.311Z,5.03
2022-10-08T20:56:07.105Z,3.45
2022-10-08T20:58:35.136Z,3.88
2022-10-08T21:01:07.099Z,5.18
2022-10-08T21:03:36.424Z,4.35
2022-10-08T21:06:08.974Z,6.15
2022-10-08T21:08:37.784Z,5.88
2022-10-08T21:11:06.864Z,6.53
2022-10-08T21:13:34.666Z,6.20
2022-10-08T21:16:10.395Z,6.65
2022-10-08T21:18:37.979Z,5.97
2022-10-08T21:21:06.763Z,6.38
2022-10-08T21:23:34.331Z,6.85
2022-10-08T21:26:07.984Z,6.50
2022-10-08T21:28:35.497Z,5.80
2022-10-08T21:31:04.461Z,6.30
2022-10-08T21:33:33.056Z,5.93
2022-10-08T21:36:00.933Z,5.25
2022-10-08T21:38:28.538Z,5.93
2022-10-08T21:41:00.052Z,9.52
2022-10-08T21:43:31.390Z,6.25
2022-10-08T21:46:00.272Z,6.80
2022-10-08T21:48:28.704Z,5.88
2022-10-08T21:51:16.265Z,6.30
2022-10-08T21:53:48.945Z,6.57
2022-10-08T21:56:18.235Z,6.00
2022-10-08T21:58:47.591Z,6.05
2022-10-08T22:01:21.404Z,5.40
2022-10-08T22:03:48.881Z,5.80
2022-10-08T22:06:16.705Z,5.07
2022-10-08T22:08:44.074Z,5.32
2022-10-08T22:11:12.368Z,4.88
2022-10-08T22:13:39.750Z,5.60
2022-10-08T22:16:09.655Z,5.65
2022-10-08T22:18:36.990Z,5.03
2022-10-08T22:21:09.068Z,5.50
2022-10-08T22:23:36.715Z,4.80
2022-10-08T22:26:14.914Z,4.60
2022-10-08T22:28:42.737Z,4.30
2022-10-08T22:31:11.820Z,5.50
2022-10-08T22:33:39.489Z,4.50
2022-10-08T22:36:08.088Z,6.43
2022-10-08T22:38:37.924Z,4.90
2022-10-08T22:41:06.908Z,4.30
2022-10-08T22:43:34.720Z,5.25
2022-10-08T22:46:03.203Z,4.97
2022-10-08T22:48:31.795Z,5.80
2022-10-08T22:51:03.077Z,4.38
2022-10-08T22:53:30.668Z,4.75
2022-10-08T22:55:58.326Z,4.47
2022-10-08T22:58:25.896Z,4.00
2022-10-08T23:01:20.501Z,4.18
2022-10-08T23:03:48.317Z,4.60
2022-10-08T23:06:20.306Z,3.97
2022-10-08T23:08:49.092Z,4.85
2022-10-08T23:11:17.814Z,3.80
2022-10-08T23:13:45.755Z,3.30
2022-10-08T23:16:14.221Z,3.67
2022-10-08T23:18:43.604Z,3.35
2022-10-08T23:21:16.860Z,3.63
2022-10-08T23:23:44.952Z,3.22
2022-10-08T23:26:12.788Z,3.38
2022-10-08T23:28:42.809Z,3.25
2022-10-08T23:31:15.637Z,3.65
2022-10-08T23:33:45.178Z,3.13
2022-10-08T23:36:14.004Z,3.05
2022-10-08T23:38:41.593Z,2.92
2022-10-08T23:41:09.702Z,2.90
2022-10-08T23:43:38.906Z,2.30
2022-10-08T23:46:07.679Z,2.40
2022-10-08T23:48:35.482Z,3.00
2022-10-08T23:51:03.296Z,2.30
2022-10-08T23:53:31.929Z,3.08
2022-10-08T23:55:59.329Z,2.70
2022-10-08T23:58:27.038Z,2.78
